Time;durP1;ratioP1;P1;durP2;ratioP2;P2;SDS_P1;SDS_P2;PMS_P1;PMS_P2;Temp;Humidity;BMP_temperature;BMP_pressure;BME280_temperature;BME280_humidity;BME280_pressure;Samples;Min_cycle;Max_cycle;Signal;HPM_P1;HPM_P2
2023/01/09 00:01:50;;;;;;;;;;;;;;;19.01;28.57;97105.97;4991641;28;19926;-86
2023/01/09 00:04:16;;;;;;;;;;;;;;;19.06;28.27;97100.72;4985432;28;19926;-86
2023/01/09 00:06:44;;;;;;;;;;;;;;;19.09;28.41;97099.09;4990688;28;19944;-86
2023/01/09 00:09:10;;;;;;;;;;;;;;;19.91;27.38;97093.53;4985363;28;19961;-86
2023/01/09 00:11:36;;;;;;;;;;;;;;;19.61;27.61;97102.88;4983518;28;19925;-86
2023/01/09 00:14:03;;;;;;;;;;;;;;;17.63;30.57;97093.25;4986253;28;19930;-86
2023/01/09 00:16:29;;;;;;;;;;;;;;;17.07;31.63;97094.63;4982681;28;19922;-86
2023/01/09 00:18:55;;;;;;;;;;;;;;;18.26;29.72;97084.09;4996536;28;19921;-85
2023/01/09 00:21:22;;;;;;;;;;;;;;;18.53;29.16;97090.44;4994235;28;19922;-86
2023/01/09 00:23:48;;;;;;;;;;;;;;;18.89;28.60;97095.44;4994238;28;20357;-86
2023/01/09 00:26:18;;;;;;;;;;;;;;;18.82;28.62;97098.34;4970638;28;20393;-86
2023/01/09 00:28:45;;;;;;;;;;;;;;;17.20;31.15;97096.47;4990142;28;19926;-86
2023/01/09 00:31:12;;;;;;;;;;;;;;;17.53;30.77;97092.19;4984883;28;19930;-86
2023/01/09 00:33:44;;;;;;;;;;;;;;;17.76;30.13;97097.84;4987739;28;19929;-85
2023/01/09 00:36:11;;;;;;;;;;;;;;;16.10;33.18;97094.97;4980428;28;19922;-85
2023/01/09 00:38:37;;;;;;;;;;;;;;;17.19;31.44;97094.91;4980833;28;19926;-85
2023/01/09 00:41:05;;;;;;;;;;;;;;;16.56;32.33;97093.50;4987709;28;19929;-85
2023/01/09 00:43:34;;;;;;;;;;;;;;;17.75;30.20;97096.28;4989812;28;19930;-85
2023/01/09 00:46:02;;;;;;;;;;;;;;;16.50;32.54;97095.06;4983319;28;20349;-85
2023/01/09 00:48:28;;;;;;;;;;;;;;;16.66;32.19;97094.59;4989206;28;19975;-85
2023/01/09 00:50:57;;;;;;;;;;;;;;;16.83;31.97;97096.41;4990809;28;20020;-85
2023/01/09 00:53:25;;;;;;;;;;;;;;;15.55;34.21;97103.91;4983816;28;19929;-85
2023/01/09 00:55:52;;;;;;;;;;;;;;;15.27;34.96;97101.19;4989165;28;19922;-85
2023/01/09 00:58:18;;;;;;;;;;;;;;;16.92;32.17;97099.50;4985817;28;19921;-86
2023/01/09 01:00:44;;;;;;;;;;;;;;;16.91;31.97;97097.16;4985415;28;19922;-86
2023/01/09 01:03:10;;;;;;;;;;;;;;;18.00;30.39;97089.59;4983150;28;19949;-86
2023/01/09 01:08:21;;;;;;;;;;;;;;;17.52;30.74;97065.66;4985674;28;20365;-86
2023/01/09 01:10:47;;;;;;;;;;;;;;;18.08;30.04;97068.88;4985410;28;20441;-85
2023/01/09 01:13:13;;;;;;;;;;;;;;;19.00;28.72;97076.56;4990395;28;19949;-85
2023/01/09 01:15:40;;;;;;;;;;;;;;;18.59;29.13;97080.44;4985442;28;19988;-85
2023/01/09 01:18:07;;;;;;;;;;;;;;;17.89;30.21;97078.66;4987986;28;19972;-85
2023/01/09 01:20:33;;;;;;;;;;;;;;;16.79;32.41;97069.94;4993263;28;20038;-85
2023/01/09 01:22:59;;;;;;;;;;;;;;;18.31;29.53;97066.16;4981466;28;20001;-85
2023/01/09 01:25:25;;;;;;;;;;;;;;;19.09;28.63;97071.25;4980946;28;19922;-85
2023/01/09 01:27:51;;;;;;;;;;;;;;;18.84;28.75;97063.34;4979697;28;19944;-85
2023/01/09 01:30:17;;;;;;;;;;;;;;;18.61;29.60;97057.78;4989136;28;20366;-86
2023/01/09 01:32:44;;;;;;;;;;;;;;;19.04;28.50;97060.63;4977241;28;19922;-85
2023/01/09 01:35:10;;;;;;;;;;;;;;;17.49;31.09;97049.00;4990129;28;19957;-85
2023/01/09 01:37:37;;;;;;;;;;;;;;;19.84;27.80;97047.13;4986334;28;19929;-85
2023/01/09 01:40:04;;;;;;;;;;;;;;;20.47;26.67;97041.34;4979807;28;19945;-85
2023/01/09 01:42:30;;;;;;;;;;;;;;;21.12;25.93;97034.53;4985168;28;19921;-85
2023/01/09 01:45:10;;;;;;;;;;;;;;;20.31;26.76;97027.38;4988929;28;19933;-85
2023/01/09 01:47:48;;;;;;;;;;;;;;;19.03;28.67;97043.13;4980672;28;19921;-86
2023/01/09 01:50:17;;;;;;;;;;;;;;;18.80;29.22;97040.38;4984280;28;19922;-85
2023/01/09 01:52:45;;;;;;;;;;;;;;;20.20;27.40;97035.19;4982654;28;20390;-85
2023/01/09 01:55:11;;;;;;;;;;;;;;;20.11;27.38;97023.84;4989117;28;19936;-86
2023/01/09 01:57:41;;;;;;;;;;;;;;;21.72;25.23;97012.50;4984198;28;20296;-86
2023/01/09 02:00:08;;;;;;;;;;;;;;;22.74;23.86;97016.94;4987841;28;20359;-87
2023/01/09 02:02:34;;;;;;;;;;;;;;;23.10;23.05;97029.31;4981038;28;19973;-87
2023/01/09 02:05:01;;;;;;;;;;;;;;;22.72;23.56;97023.00;4975325;28;19922;-87
2023/01/09 02:07:27;;;;;;;;;;;;;;;23.35;23.23;97020.03;4985295;28;19930;-87
2023/01/09 02:09:54;;;;;;;;;;;;;;;23.65;22.39;97013.72;4983943;28;19929;-87
2023/01/09 02:12:22;;;;;;;;;;;;;;;24.07;22.16;97008.56;4980171;28;20004;-87
2023/01/09 02:14:51;;;;;;;;;;;;;;;24.30;21.44;97010.84;4986899;28;19949;-87
2023/01/09 02:17:20;;;;;;;;;;;;;;;24.46;21.07;97007.78;4979733;28;19922;-87
2023/01/09 02:19:58;;;;;;;;;;;;;;;24.69;21.09;97009.28;4988207;28;19932;-87
2023/01/09 02:22:42;;;;;;;;;;;;;;;24.32;21.51;97002.00;4980423;28;19977;-87
2023/01/09 02:25:08;;;;;;;;;;;;;;;24.47;20.93;96998.13;4983598;28;20023;-87
2023/01/09 02:27:34;;;;;;;;;;;;;;;24.32;21.17;97013.22;4982562;28;19981;-83
2023/01/09 02:30:03;;;;;;;;;;;;;;;24.34;21.10;97005.09;4979438;28;20373;-85
2023/01/09 02:32:39;;;;;;;;;;;;;;;24.27;21.52;97008.94;4981342;28;19964;-85
2023/01/09 02:35:18;;;;;;;;;;;;;;;24.55;20.92;97013.44;4982560;28;19926;-85
2023/01/09 02:38:10;;;;;;;;;;;;;;;24.74;20.49;96997.41;4988203;28;20446;-85
2023/01/09 02:40:40;;;;;;;;;;;;;;;24.85;20.61;96997.00;4980985;28;19932;-86
2023/01/09 02:43:07;;;;;;;;;;;;;;;24.94;20.57;96992.19;4981690;28;20069;-85
2023/01/09 02:45:33;;;;;;;;;;;;;;;24.61;20.98;96991.94;4993206;28;19926;-85
2023/01/09 02:47:59;;;;;;;;;;;;;;;23.62;21.83;97000.63;4982057;28;19923;-85
2023/01/09 02:50:45;;;;;;;;;;;;;;;23.42;22.15;96993.78;4988682;28;20011;-85
2023/01/09 02:53:11;;;;;;;;;;;;;;;23.92;21.85;97001.91;4980606;28;19922;-85
2023/01/09 02:55:55;;;;;;;;;;;;;;;24.24;20.72;97009.91;4987666;28;19932;-85
2023/01/09 02:58:27;;;;;;;;;;;;;;;24.43;20.45;97000.31;4982944;28;20074;-86
2023/01/09 03:00:58;;;;;;;;;;;;;;;23.86;21.08;97018.53;4991670;28;19921;-86
2023/01/09 03:03:27;;;;;;;;;;;;;;;23.16;21.25;97027.47;4983279;28;19919;-86
2023/01/09 03:06:00;;;;;;;;;;;;;;;23.35;21.59;97023.63;4984156;28;19922;-86
2023/01/09 03:08:30;;;;;;;;;;;;;;;22.92;21.74;97014.34;4989197;28;19933;-85
2023/01/09 03:11:05;;;;;;;;;;;;;;;23.40;21.21;97016.66;4994499;28;20329;-86
2023/01/09 03:13:33;;;;;;;;;;;;;;;23.63;20.70;96999.41;4985986;28;19929;-86
2023/01/09 03:16:01;;;;;;;;;;;;;;;23.67;21.06;96996.44;4986198;28;19933;-86
2023/01/09 03:18:29;;;;;;;;;;;;;;;22.01;22.42;96985.28;4980396;28;19983;-86
2023/01/09 03:20:55;;;;;;;;;;;;;;;22.63;21.79;96994.94;4986077;28;19937;-85
2023/01/09 03:23:21;;;;;;;;;;;;;;;22.87;22.37;96989.72;4986614;28;20301;-85
2023/01/09 03:25:47;;;;;;;;;;;;;;;23.42;21.40;96988.97;4990641;28;20449;-85
2023/01/09 03:28:27;;;;;;;;;;;;;;;23.64;20.84;96986.94;4986428;28;20366;-85
2023/01/09 03:30:53;;;;;;;;;;;;;;;22.11;22.02;96983.41;4984425;28;19928;-85
2023/01/09 03:33:19;;;;;;;;;;;;;;;21.38;23.32;96982.38;4981787;28;19922;-85
2023/01/09 03:35:45;;;;;;;;;;;;;;;21.98;22.27;96977.81;4981407;28;19929;-85
2023/01/09 03:38:11;;;;;;;;;;;;;;;21.89;22.96;96977.72;4982151;28;20314;-85
2023/01/09 03:40:37;;;;;;;;;;;;;;;20.21;24.92;96972.66;4983187;28;19925;-86
2023/01/09 03:43:04;;;;;;;;;;;;;;;20.54;25.12;96966.66;4981609;28;19922;-86
2023/01/09 03:45:30;;;;;;;;;;;;;;;21.31;24.15;96949.84;4984774;28;19926;-86
2023/01/09 03:47:58;;;;;;;;;;;;;;;21.94;23.15;96949.19;4983763;28;20297;-85
2023/01/09 03:50:24;;;;;;;;;;;;;;;22.16;23.00;96946.50;4984461;28;20638;-85
2023/01/09 03:52:51;;;;;;;;;;;;;;;22.69;23.11;96957.53;4985596;28;20659;-86
2023/01/09 03:55:17;;;;;;;;;;;;;;;23.29;22.31;96940.63;4992766;28;20287;-86
2023/01/09 03:57:43;;;;;;;;;;;;;;;21.95;23.34;96950.75;4992225;28;19921;-86
2023/01/09 04:00:09;;;;;;;;;;;;;;;22.98;22.50;96956.53;4993063;28;19976;-86
2023/01/09 04:02:35;;;;;;;;;;;;;;;23.63;21.79;96940.56;4991296;28;20306;-86
2023/01/09 04:05:01;;;;;;;;;;;;;;;23.79;20.98;96931.91;4983001;28;20033;-86
2023/01/09 04:07:27;;;;;;;;;;;;;;;20.71;24.26;96928.38;4984184;28;19929;-86
2023/01/09 04:09:53;;;;;;;;;;;;;;;22.11;22.47;96930.28;4988148;28;19928;-86
2023/01/09 04:12:21;;;;;;;;;;;;;;;22.19;22.91;96920.47;4988040;28;20233;-86
2023/01/09 04:14:47;;;;;;;;;;;;;;;20.12;25.31;96917.53;4985771;28;20412;-85
2023/01/09 04:17:15;;;;;;;;;;;;;;;19.91;26.18;96918.81;4989929;28;19926;-85
2023/01/09 04:19:41;;;;;;;;;;;;;;;18.92;27.98;96916.59;4984881;28;19928;-85
2023/01/09 04:22:07;;;;;;;;;;;;;;;20.51;26.08;96922.16;4989618;28;19952;-86
2023/01/09 04:24:33;;;;;;;;;;;;;;;21.85;24.60;96919.13;4980221;28;19926;-86
2023/01/09 04:26:59;;;;;;;;;;;;;;;22.92;23.17;96919.94;4985895;28;19995;-86
2023/01/09 04:29:25;;;;;;;;;;;;;;;22.19;24.05;96918.44;4986862;28;19922;-86
2023/01/09 04:31:51;;;;;;;;;;;;;;;22.08;24.12;96918.00;4980506;28;19930;-86
2023/01/09 04:34:17;;;;;;;;;;;;;;;23.14;23.29;96897.56;4986317;28;20309;-86
2023/01/09 04:36:43;;;;;;;;;;;;;;;23.49;22.63;96895.47;4987468;28;19940;-86
2023/01/09 04:39:09;;;;;;;;;;;;;;;24.09;22.39;96909.94;4988880;28;19922;-85
2023/01/09 04:41:47;;;;;;;;;;;;;;;23.14;22.76;96897.56;4982783;28;20294;-85
2023/01/09 04:44:20;;;;;;;;;;;;;;;22.64;23.46;96896.53;4985689;28;19922;-86
2023/01/09 04:46:47;;;;;;;;;;;;;;;22.37;23.87;96889.88;4979161;28;19995;-86
2023/01/09 04:49:13;;;;;;;;;;;;;;;19.46;28.00;96895.63;4993004;28;19922;-86
2023/01/09 04:51:39;;;;;;;;;;;;;;;20.74;26.44;96885.69;4989839;28;20431;-86
2023/01/09 04:54:05;;;;;;;;;;;;;;;22.41;24.37;96882.16;4971309;28;19922;-86
2023/01/09 04:56:32;;;;;;;;;;;;;;;23.36;23.21;96875.97;4984966;28;20009;-86
2023/01/09 04:58:58;;;;;;;;;;;;;;;21.75;24.84;96871.94;4989892;28;20370;-86
2023/01/09 05:01:24;;;;;;;;;;;;;;;21.58;25.48;96871.28;4984796;28;19925;-86
2023/01/09 05:03:50;;;;;;;;;;;;;;;23.06;23.82;96877.44;4984287;28;20378;-86
2023/01/09 05:06:16;;;;;;;;;;;;;;;24.01;22.93;96862.53;4971546;28;19969;-86
2023/01/09 05:08:42;;;;;;;;;;;;;;;24.53;22.08;96867.19;4985136;28;20353;-86
2023/01/09 05:11:08;;;;;;;;;;;;;;;24.09;22.55;96867.88;4984120;28;19957;-86
2023/01/09 05:13:34;;;;;;;;;;;;;;;23.98;22.98;96866.28;4989987;28;20028;-86
2023/01/09 05:16:00;;;;;;;;;;;;;;;24.27;22.58;96865.13;4986110;28;20013;-87
2023/01/09 05:18:26;;;;;;;;;;;;;;;23.75;23.65;96866.03;4985571;28;20374;-87
2023/01/09 05:20:52;;;;;;;;;;;;;;;22.51;24.72;96876.19;4979491;28;20420;-89
2023/01/09 05:23:18;;;;;;;;;;;;;;;21.91;25.64;96871.84;4968552;28;19956;-88
2023/01/09 05:25:44;;;;;;;;;;;;;;;22.16;25.45;96869.00;4982047;28;19961;-88
2023/01/09 05:28:10;;;;;;;;;;;;;;;21.95;25.87;96864.91;4981055;28;19918;-87
2023/01/09 05:30:36;;;;;;;;;;;;;;;21.08;27.30;96862.81;4980820;28;19922;-88
2023/01/09 05:33:02;;;;;;;;;;;;;;;21.23;26.73;96859.19;4980899;28;19930;-88
2023/01/09 05:35:28;;;;;;;;;;;;;;;22.52;25.29;96857.41;4984027;28;20314;-90
2023/01/09 05:37:55;;;;;;;;;;;;;;;23.22;24.92;96859.66;4977844;28;19922;-89
2023/01/09 05:40:21;;;;;;;;;;;;;;;23.49;23.61;96857.03;4982227;28;19936;-91
2023/01/09 05:42:47;;;;;;;;;;;;;;;23.74;23.73;96853.25;4985133;28;19922;-90
2023/01/09 05:45:14;;;;;;;;;;;;;;;22.93;24.78;96857.13;4986169;28;19937;-90
2023/01/09 05:47:40;;;;;;;;;;;;;;;23.92;24.06;96861.75;4982883;28;20306;-88
2023/01/09 05:50:06;;;;;;;;;;;;;;;23.76;23.68;96848.75;4985502;28;19972;-86
2023/01/09 05:52:32;;;;;;;;;;;;;;;24.16;23.55;96850.75;4980638;28;19922;-86
2023/01/09 05:54:58;;;;;;;;;;;;;;;24.41;23.55;96845.66;4975066;28;19918;-92
2023/01/09 05:57:24;;;;;;;;;;;;;;;24.95;22.94;96855.38;4974902;28;19929;-89
2023/01/09 05:59:50;;;;;;;;;;;;;;;23.40;24.53;96857.00;4975591;28;20321;-90
2023/01/09 06:02:16;;;;;;;;;;;;;;;23.74;24.63;96856.06;4975494;28;19948;-90
2023/01/09 06:04:45;;;;;;;;;;;;;;;23.85;23.92;96851.56;4975328;28;19965;-90
2023/01/09 06:07:11;;;;;;;;;;;;;;;24.12;24.09;96855.75;4975478;28;19918;-89
2023/01/09 06:09:37;;;;;;;;;;;;;;;24.80;22.83;96849.63;4975185;28;19925;-90
2023/01/09 06:12:03;;;;;;;;;;;;;;;24.74;23.09;96846.63;4975792;28;20366;-89
2023/01/09 06:14:29;;;;;;;;;;;;;;;24.62;23.44;96858.78;4974410;28;19928;-90
2023/01/09 06:16:55;;;;;;;;;;;;;;;24.50;23.31;96850.53;4975478;28;19933;-90
2023/01/09 06:19:21;;;;;;;;;;;;;;;24.80;23.09;96855.22;4991497;28;20271;-90
2023/01/09 06:21:47;;;;;;;;;;;;;;;24.67;23.17;96848.94;4995000;28;19922;-89
2023/01/09 06:24:13;;;;;;;;;;;;;;;23.46;24.71;96843.94;4994608;28;19957;-89
2023/01/09 06:26:39;;;;;;;;;;;;;;;24.41;23.79;96851.28;4990178;28;20016;-88
2023/01/09 06:29:06;;;;;;;;;;;;;;;25.05;23.04;96848.50;4973572;28;19926;-89
2023/01/09 06:31:33;;;;;;;;;;;;;;;24.87;23.06;96849.31;4994532;28;19969;-89
2023/01/09 06:33:59;;;;;;;;;;;;;;;24.60;23.30;96849.25;4992572;28;20374;-89
2023/01/09 06:36:25;;;;;;;;;;;;;;;24.64;23.50;96838.69;4994702;28;20382;-89
2023/01/09 06:38:51;;;;;;;;;;;;;;;24.42;23.78;96840.84;4990425;28;20370;-89
2023/01/09 06:41:17;;;;;;;;;;;;;;;24.17;24.08;96844.69;4975879;28;20321;-89
2023/01/09 06:43:43;;;;;;;;;;;;;;;24.65;23.61;96840.22;4989417;28;20325;-89
2023/01/09 06:46:09;;;;;;;;;;;;;;;25.12;22.87;96839.75;4978941;28;19933;-89
2023/01/09 06:48:35;;;;;;;;;;;;;;;25.09;22.89;96835.06;4987853;28;19918;-89
2023/01/09 06:51:02;;;;;;;;;;;;;;;24.38;23.66;96838.19;4992870;28;19972;-89
2023/01/09 06:53:28;;;;;;;;;;;;;;;24.57;23.82;96838.97;4974834;28;20008;-89
2023/01/09 06:55:54;;;;;;;;;;;;;;;25.05;23.34;96842.88;4986357;28;19921;-89
2023/01/09 06:58:20;;;;;;;;;;;;;;;24.85;22.94;96846.19;4994584;28;20009;-89
2023/01/09 07:00:48;;;;;;;;;;;;;;;25.33;22.52;96845.16;4969584;28;20001;-91
2023/01/09 07:03:18;;;;;;;;;;;;;;;25.17;22.73;96842.72;4984011;28;19922;-91
2023/01/09 07:05:45;;;;;;;;;;;;;;;24.37;23.93;96847.06;4965405;28;19918;-91
2023/01/09 07:08:11;;;;;;;;;;;;;;;24.53;23.88;96849.56;4961762;28;19922;-92
2023/01/09 07:10:37;;;;;;;;;;;;;;;24.63;23.65;96851.13;4994329;28;19925;-93
2023/01/09 07:13:03;;;;;;;;;;;;;;;23.71;24.59;96840.94;4977117;28;19922;-93
2023/01/09 07:15:29;;;;;;;;;;;;;;;23.61;25.05;96830.94;4985088;28;19969;-91
2023/01/09 07:17:55;;;;;;;;;;;;;;;24.70;23.77;96843.19;4975167;28;19926;-91
2023/01/09 07:20:21;;;;;;;;;;;;;;;23.09;25.40;96848.53;4974462;28;19922;-91
2023/01/09 07:22:47;;;;;;;;;;;;;;;24.57;23.72;96839.78;4974547;28;19922;-91
2023/01/09 07:25:13;;;;;;;;;;;;;;;24.75;23.24;96847.41;4992340;28;19925;-91
2023/01/09 07:27:39;;;;;;;;;;;;;;;24.89;23.49;96841.19;4998007;28;19918;-91
2023/01/09 07:30:06;;;;;;;;;;;;;;;25.51;23.06;96833.09;4997722;28;19918;-91
2023/01/09 07:32:32;;;;;;;;;;;;;;;25.98;22.47;96843.69;4997335;28;20341;-91
2023/01/09 07:34:58;;;;;;;;;;;;;;;26.05;22.28;96846.16;4997199;28;20275;-91
2023/01/09 07:37:24;;;;;;;;;;;;;;;26.30;22.49;96851.34;4980714;28;19969;-91
2023/01/09 07:39:51;;;;;;;;;;;;;;;26.67;21.83;96849.06;4977957;28;20423;-91
2023/01/09 07:42:17;;;;;;;;;;;;;;;26.11;22.48;96840.69;4978023;28;19922;-91
2023/01/09 07:44:43;;;;;;;;;;;;;;;26.24;22.00;96849.66;4995861;28;19922;-91
2023/01/09 07:47:09;;;;;;;;;;;;;;;26.51;22.28;96843.88;4996226;28;19926;-91
2023/01/09 07:49:35;;;;;;;;;;;;;;;25.99;22.32;96853.69;4993749;28;19918;-91
2023/01/09 07:52:02;;;;;;;;;;;;;;;25.19;23.58;96850.66;4995121;28;20016;-90
2023/01/09 07:54:28;;;;;;;;;;;;;;;25.73;23.19;96847.72;4989833;28;19922;-90
2023/01/09 07:56:54;;;;;;;;;;;;;;;26.15;22.49;96853.31;4983362;28;19928;-90
2023/01/09 07:59:21;;;;;;;;;;;;;;;26.35;22.13;96847.13;4992883;28;19922;-91
2023/01/09 08:01:47;;;;;;;;;;;;;;;26.74;22.15;96834.63;4993659;28;19925;-92
2023/01/09 08:04:13;;;;;;;;;;;;;;;26.49;22.00;96843.59;4990953;28;20000;-91
2023/01/09 08:06:39;;;;;;;;;;;;;;;25.91;22.61;96838.41;4994011;28;20293;-90
2023/01/09 08:09:05;;;;;;;;;;;;;;;25.70;23.43;96834.59;4993055;28;19921;-89
2023/01/09 08:11:31;;;;;;;;;;;;;;;25.22;23.89;96832.88;4985047;28;19928;-90
2023/01/09 08:13:57;;;;;;;;;;;;;;;24.91;24.83;96837.91;4995791;28;19956;-88
2023/01/09 08:16:23;;;;;;;;;;;;;;;25.52;23.76;96831.09;4993579;28;19957;-89
2023/01/09 08:18:49;;;;;;;;;;;;;;;25.84;23.39;96828.28;4977637;28;19929;-89
2023/01/09 08:21:15;;;;;;;;;;;;;;;26.20;23.56;96821.72;4995519;28;19921;-89
2023/01/09 08:23:41;;;;;;;;;;;;;;;26.11;23.23;96818.19;4995185;28;19980;-89
2023/01/09 08:26:07;;;;;;;;;;;;;;;26.63;22.81;96821.09;4974866;28;20381;-90
2023/01/09 08:28:33;;;;;;;;;;;;;;;26.80;22.67;96823.47;4990730;28;19922;-88
2023/01/09 08:30:59;;;;;;;;;;;;;;;27.10;22.53;96816.63;4987066;28;19922;-90
2023/01/09 08:33:26;;;;;;;;;;;;;;;26.27;24.17;96815.75;4976685;28;19922;-88
2023/01/09 08:35:52;;;;;;;;;;;;;;;26.24;23.89;96816.69;4980428;28;19940;-87
2023/01/09 08:38:20;;;;;;;;;;;;;;;25.86;24.27;96817.34;4977533;28;19936;-87
2023/01/09 08:40:46;;;;;;;;;;;;;;;26.87;23.07;96828.75;4989703;28;19966;-88
2023/01/09 08:49:03;;;;;;;;;;;;;;;26.19;23.57;96825.00;4994383;28;19941;-90
2023/01/09 08:51:29;;;;;;;;;;;;;;;25.40;24.53;96811.13;4959143;28;20378;-88
2023/01/09 08:53:55;;;;;;;;;;;;;;;26.07;24.06;96818.31;4977183;28;19926;-88
2023/01/09 08:56:21;;;;;;;;;;;;;;;26.18;25.02;96813.00;4987523;28;20559;-87
2023/01/09 08:58:47;;;;;;;;;;;;;;;26.42;24.20;96818.63;4975668;28;19933;-88
2023/01/09 09:01:13;;;;;;;;;;;;;;;26.70;23.30;96817.13;4984487;28;19928;-89
2023/01/09 09:03:39;;;;;;;;;;;;;;;26.84;23.40;96816.41;4993422;28;19930;-88
2023/01/09 09:06:05;;;;;;;;;;;;;;;26.36;23.40;96814.88;4989377;28;19918;-90
2023/01/09 09:08:38;;;;;;;;;;;;;;;26.73;23.92;96821.78;4994045;28;19965;-88
2023/01/09 09:11:04;;;;;;;;;;;;;;;27.53;23.06;96812.28;4958433;28;19922;-90
2023/01/09 09:13:31;;;;;;;;;;;;;;;27.48;23.22;96810.94;4988836;28;19922;-87
2023/01/09 09:15:57;;;;;;;;;;;;;;;26.92;23.58;96816.81;4980006;28;19922;-88
2023/01/09 09:18:23;;;;;;;;;;;;;;;26.76;24.45;96811.63;4976784;28;19922;-88
2023/01/09 09:20:49;;;;;;;;;;;;;;;26.23;25.12;96812.34;4991740;28;19922;-88
2023/01/09 09:23:15;;;;;;;;;;;;;;;26.49;24.47;96810.56;4995292;28;19922;-90
2023/01/09 09:25:42;;;;;;;;;;;;;;;27.44;24.08;96812.38;4991157;28;19921;-88
2023/01/09 09:28:08;;;;;;;;;;;;;;;27.66;23.30;96801.44;4994941;28;20362;-87
2023/01/09 09:30:36;;;;;;;;;;;;;;;27.24;23.38;96794.09;4977559;28;20020;-87
2023/01/09 09:33:03;;;;;;;;;;;;;;;27.78;23.45;96787.03;4964456;28;19926;-87
2023/01/09 09:35:31;;;;;;;;;;;;;;;28.23;22.74;96782.84;4982274;28;19930;-87
2023/01/09 09:38:01;;;;;;;;;;;;;;;28.11;22.75;96783.16;4973996;28;19941;-87
2023/01/09 09:40:30;;;;;;;;;;;;;;;28.03;23.32;96783.59;4995460;28;19971;-87
2023/01/09 09:46:23;;;;;;;;;;;;;;;27.59;24.52;96774.44;4993032;28;19929;-88
2023/01/09 09:48:52;;;;;;;;;;;;;;;27.55;24.08;96776.69;4992698;28;20386;-87
2023/01/09 09:51:18;;;;;;;;;;;;;;;28.13;23.29;96774.97;4984675;28;19928;-88
2023/01/09 09:53:44;;;;;;;;;;;;;;;28.32;24.45;96777.03;4983573;28;19922;-87
2023/01/09 09:56:12;;;;;;;;;;;;;;;28.33;23.10;96778.63;4980767;28;19934;-87
2023/01/09 09:58:41;;;;;;;;;;;;;;;27.45;23.62;96780.88;4994681;28;19972;-88
2023/01/09 10:01:10;;;;;;;;;;;;;;;27.95;23.57;96773.97;4975112;28;20293;-88
2023/01/09 10:03:42;;;;;;;;;;;;;;;27.67;24.50;96769.19;4981396;28;19977;-87
2023/01/09 10:06:20;;;;;;;;;;;;;;;27.78;24.62;96769.34;4957997;28;19919;-89
2023/01/09 10:09:12;;;;;;;;;;;;;;;27.64;24.60;96770.94;4983754;28;19925;-87
2023/01/09 10:11:56;;;;;;;;;;;;;;;27.66;23.91;96764.78;4985903;28;19926;-88
2023/01/09 10:14:24;;;;;;;;;;;;;;;27.41;24.62;96766.22;4974124;28;19941;-88
2023/01/09 10:16:50;;;;;;;;;;;;;;;26.92;24.69;96775.34;4991809;28;20021;-88
2023/01/09 10:19:18;;;;;;;;;;;;;;;27.75;24.35;96770.34;4988449;28;19955;-88
2023/01/09 10:21:50;;;;;;;;;;;;;;;27.13;23.77;96762.91;4984128;28;20354;-90
2023/01/09 10:24:42;;;;;;;;;;;;;;;27.84;23.60;96762.50;4978561;28;19922;-90
2023/01/09 10:27:27;;;;;;;;;;;;;;;27.22;25.64;96759.97;4950929;28;19922;-89
2023/01/09 10:30:08;;;;;;;;;;;;;;;27.00;25.58;96756.00;4993738;28;20325;-90
2023/01/09 10:32:43;;;;;;;;;;;;;;;27.88;23.33;96759.50;4992935;28;19922;-88
2023/01/09 10:35:21;;;;;;;;;;;;;;;26.50;24.99;96750.19;4992950;28;20000;-89
2023/01/09 10:37:52;;;;;;;;;;;;;;;27.30;23.91;96743.47;4993055;28;19926;-89
2023/01/09 10:40:21;;;;;;;;;;;;;;;26.74;26.19;96748.09;4985368;28;19969;-89
2023/01/09 10:42:50;;;;;;;;;;;;;;;26.98;24.19;96738.81;4980538;28;20382;-88
2023/01/09 10:45:16;;;;;;;;;;;;;;;27.21;23.71;96735.13;4990361;28;19921;-88
2023/01/09 10:47:43;;;;;;;;;;;;;;;27.77;23.67;96731.88;4990159;28;20764;-87
2023/01/09 10:50:22;;;;;;;;;;;;;;;28.27;23.32;96718.47;4994029;28;19918;-87
2023/01/09 10:52:50;;;;;;;;;;;;;;;28.13;23.22;96721.34;4991160;28;19924;-89
2023/01/09 10:55:20;;;;;;;;;;;;;;;28.31;23.09;96713.38;4992992;28;20377;-89
2023/01/09 10:57:49;;;;;;;;;;;;;;;28.05;23.32;96710.50;4993236;28;20356;-88
2023/01/09 11:00:19;;;;;;;;;;;;;;;27.67;23.89;96710.75;4986567;28;19926;-86
2023/01/09 11:02:45;;;;;;;;;;;;;;;27.63;24.93;96707.34;4964153;28;19933;-87
2023/01/09 11:05:18;;;;;;;;;;;;;;;28.66;23.32;96714.06;4961087;28;19918;-86
2023/01/09 11:07:46;;;;;;;;;;;;;;;28.52;22.53;96709.25;4996437;28;19922;-86
2023/01/09 11:10:14;;;;;;;;;;;;;;;26.01;25.94;96704.91;4990019;28;19921;-86
2023/01/09 11:12:40;;;;;;;;;;;;;;;26.37;25.21;96699.00;4990787;28;20013;-86
2023/01/09 11:15:18;;;;;;;;;;;;;;;25.77;26.18;96690.09;4996240;28;20408;-87
2023/01/09 11:17:49;;;;;;;;;;;;;;;25.84;27.17;96713.00;4966387;28;19930;-88
2023/01/09 11:20:16;;;;;;;;;;;;;;;26.01;26.27;96702.09;5001503;28;20393;-87
2023/01/09 11:22:42;;;;;;;;;;;;;;;25.82;28.28;96706.28;4992405;28;19926;-86
2023/01/09 11:25:19;;;;;;;;;;;;;;;25.23;27.97;96700.34;4980180;28;19918;-87
2023/01/09 11:28:00;;;;;;;;;;;;;;;26.43;25.19;96702.72;4989192;28;19953;-87
2023/01/09 11:30:26;;;;;;;;;;;;;;;26.12;25.58;96705.16;4993211;28;21723;-85
2023/01/09 11:32:54;;;;;;;;;;;;;;;26.30;26.35;96699.38;4997182;28;19918;-86
2023/01/09 11:35:22;;;;;;;;;;;;;;;26.54;25.31;96694.47;4995715;28;19922;-85
2023/01/09 11:37:56;;;;;;;;;;;;;;;26.51;25.12;96703.13;4992600;28;19926;-85
2023/01/09 11:40:22;;;;;;;;;;;;;;;26.19;25.58;96685.09;4995920;28;19922;-85
2023/01/09 11:43:07;;;;;;;;;;;;;;;26.73;26.50;96690.22;4986516;28;20502;-85
2023/01/09 11:45:34;;;;;;;;;;;;;;;26.91;24.48;96688.50;4977552;28;20041;-85
2023/01/09 11:48:03;;;;;;;;;;;;;;;26.15;25.88;96686.56;4985316;28;19922;-85
2023/01/09 11:50:30;;;;;;;;;;;;;;;26.93;24.75;96688.78;4996086;28;20437;-85
2023/01/09 11:53:11;;;;;;;;;;;;;;;27.03;24.71;96690.22;4987782;28;19984;-85
2023/01/09 11:55:37;;;;;;;;;;;;;;;27.00;23.89;96683.53;4977102;28;19923;-85
2023/01/09 11:58:04;;;;;;;;;;;;;;;27.55;23.74;96692.09;4983173;28;20004;-85
2023/01/09 12:00:35;;;;;;;;;;;;;;;27.38;24.69;96689.03;4981664;28;19921;-85
2023/01/09 12:03:18;;;;;;;;;;;;;;;28.43;23.03;96689.66;4970107;28;20414;-84
2023/01/09 12:06:17;;;;;;;;;;;;;;;29.15;22.82;96681.88;4979943;28;20016;-84
2023/01/09 12:08:45;;;;;;;;;;;;;;;28.94;22.60;96674.75;4970462;28;19966;-85
2023/01/09 12:11:25;;;;;;;;;;;;;;;28.78;23.77;96678.22;4988726;28;19921;-84
2023/01/09 12:13:52;;;;;;;;;;;;;;;29.18;22.18;96674.47;4977310;28;19968;-85
2023/01/09 12:16:18;;;;;;;;;;;;;;;28.77;22.77;96671.03;4988968;28;19992;-84
2023/01/09 12:18:44;;;;;;;;;;;;;;;28.80;23.15;96669.25;4977509;28;19925;-85
2023/01/09 12:21:10;;;;;;;;;;;;;;;29.38;22.86;96677.22;4990922;28;20022;-85
2023/01/09 12:23:53;;;;;;;;;;;;;;;29.96;22.33;96681.41;4968749;28;19926;-84
2023/01/09 12:26:24;;;;;;;;;;;;;;;29.92;21.81;96678.81;4984358;28;19969;-85
2023/01/09 12:29:03;;;;;;;;;;;;;;;29.97;21.71;96672.41;4978568;28;19922;-85
2023/01/09 12:31:29;;;;;;;;;;;;;;;29.96;22.04;96678.59;4982308;28;20008;-85
2023/01/09 12:34:10;;;;;;;;;;;;;;;30.20;21.85;96673.25;4985229;28;19922;-86
2023/01/09 12:36:50;;;;;;;;;;;;;;;30.05;21.91;96675.53;4972302;28;19929;-85
2023/01/09 12:39:25;;;;;;;;;;;;;;;30.25;21.66;96669.69;4994603;28;19922;-87
2023/01/09 12:41:51;;;;;;;;;;;;;;;30.55;20.94;96675.75;4988569;28;20401;-86
2023/01/09 12:44:29;;;;;;;;;;;;;;;30.74;21.10;96683.22;4978081;28;19922;-85
2023/01/09 12:47:15;;;;;;;;;;;;;;;30.77;20.92;96682.22;4961714;28;20301;-86
2023/01/09 12:49:53;;;;;;;;;;;;;;;30.04;20.81;96669.09;4994338;28;20275;-87
2023/01/09 12:52:23;;;;;;;;;;;;;;;29.72;21.51;96673.28;4980313;28;20043;-87
2023/01/09 12:55:00;;;;;;;;;;;;;;;28.85;20.99;96671.34;4977895;28;19937;-87
2023/01/09 12:57:31;;;;;;;;;;;;;;;28.84;22.50;96664.16;4993599;28;19944;-86
2023/01/09 13:00:02;;;;;;;;;;;;;;;29.40;22.20;96678.25;4979539;28;19933;-85
2023/01/09 13:02:30;;;;;;;;;;;;;;;29.64;21.31;96680.69;4978359;28;19932;-86
2023/01/09 13:05:19;;;;;;;;;;;;;;;29.88;21.03;96677.50;4988053;28;19968;-86
2023/01/09 13:07:52;;;;;;;;;;;;;;;28.95;23.63;96673.50;4941093;28;19981;-85